sensor_id;sensor_type;location;lat;lon;timestamp;pressure;altitude;pressure_sealevel;temperature;humidity
49393;BME280;35268;42.642;23.308;2023-02-26T00:02:16;92733.69;;;13.91;36.95
49393;BME280;35268;42.642;23.308;2023-02-26T00:04:41;92704.06;;;13.80;36.77
49393;BME280;35268;42.642;23.308;2023-02-26T00:07:07;92740.06;;;13.83;37.42
49393;BME280;35268;42.642;23.308;2023-02-26T00:09:32;92748.09;;;13.83;38.03
49393;BME280;35268;42.642;23.308;2023-02-26T00:11:58;92738.41;;;13.75;37.24
49393;BME280;35268;42.642;23.308;2023-02-26T00:14:24;92709.03;;;13.78;37.59
49393;BME280;35268;42.642;23.308;2023-02-26T00:19:54;92715.00;;;13.68;37.89
49393;BME280;35268;42.642;23.308;2023-02-26T00:22:20;92719.13;;;13.65;37.99
49393;BME280;35268;42.642;23.308;2023-02-26T00:24:46;92729.50;;;13.67;37.59
49393;BME280;35268;42.642;23.308;2023-02-26T00:27:11;92723.25;;;13.59;36.93
49393;BME280;35268;42.642;23.308;2023-02-26T00:29:37;92730.53;;;13.59;37.54
49393;BME280;35268;42.642;23.308;2023-02-26T00:32:03;92696.06;;;13.57;37.50
49393;BME280;35268;42.642;23.308;2023-02-26T00:34:29;92725.91;;;13.56;38.12
49393;BME280;35268;42.642;23.308;2023-02-26T00:42:14;92687.41;;;13.41;37.76
49393;BME280;35268;42.642;23.308;2023-02-26T00:44:40;92671.31;;;13.37;37.40
49393;BME280;35268;42.642;23.308;2023-02-26T00:52:41;92656.44;;;13.40;36.51
49393;BME280;35268;42.642;23.308;2023-02-26T00:55:08;92719.91;;;13.39;36.90
49393;BME280;35268;42.642;23.308;2023-02-26T00:57:34;92685.81;;;13.36;36.51
49393;BME280;35268;42.642;23.308;2023-02-26T00:59:59;92689.31;;;13.40;35.60
49393;BME280;35268;42.642;23.308;2023-02-26T01:02:25;92688.63;;;13.43;36.42
49393;BME280;35268;42.642;23.308;2023-02-26T01:04:51;92673.75;;;13.46;36.36
49393;BME280;35268;42.642;23.308;2023-02-26T01:07:20;92675.25;;;13.43;35.19
49393;BME280;35268;42.642;23.308;2023-02-26T01:09:48;92671.47;;;13.48;35.41
49393;BME280;35268;42.642;23.308;2023-02-26T01:12:13;92704.06;;;13.54;35.62
49393;BME280;35268;42.642;23.308;2023-02-26T01:14:42;92674.66;;;13.57;35.92
49393;BME280;35268;42.642;23.308;2023-02-26T01:20:01;92665.44;;;13.55;35.91
49393;BME280;35268;42.642;23.308;2023-02-26T01:22:54;92694.19;;;13.58;36.07
49393;BME280;35268;42.642;23.308;2023-02-26T01:25:49;92687.69;;;13.59;36.37
49393;BME280;35268;42.642;23.308;2023-02-26T01:28:13;92662.88;;;13.62;36.60
49393;BME280;35268;42.642;23.308;2023-02-26T01:30:39;92670.84;;;13.58;35.84
49393;BME280;35268;42.642;23.308;2023-02-26T01:33:36;92644.84;;;13.59;36.06
49393;BME280;35268;42.642;23.308;2023-02-26T01:36:21;92617.66;;;13.57;36.27
49393;BME280;35268;42.642;23.308;2023-02-26T01:38:58;92630.22;;;13.53;36.32
49393;BME280;35268;42.642;23.308;2023-02-26T01:41:39;92646.22;;;13.46;36.69
49393;BME280;35268;42.642;23.308;2023-02-26T01:49:21;92626.84;;;13.29;35.83
49393;BME280;35268;42.642;23.308;2023-02-26T01:51:51;92626.94;;;13.36;35.91
49393;BME280;35268;42.642;23.308;2023-02-26T01:54:19;92627.28;;;13.35;35.71
49393;BME280;35268;42.642;23.308;2023-02-26T01:56:52;92590.25;;;13.37;35.75
49393;BME280;35268;42.642;23.308;2023-02-26T01:59:20;92599.34;;;13.32;35.75
49393;BME280;35268;42.642;23.308;2023-02-26T02:01:50;92603.44;;;13.26;35.93
49393;BME280;35268;42.642;23.308;2023-02-26T02:04:16;92602.78;;;13.29;35.83
49393;BME280;35268;42.642;23.308;2023-02-26T02:06:43;92566.72;;;13.23;35.15
49393;BME280;35268;42.642;23.308;2023-02-26T02:09:09;92588.53;;;13.25;34.83
49393;BME280;35268;42.642;23.308;2023-02-26T02:11:48;92593.16;;;13.28;35.09
49393;BME280;35268;42.642;23.308;2023-02-26T02:14:26;92601.13;;;13.24;34.65
49393;BME280;35268;42.642;23.308;2023-02-26T02:22:25;92584.63;;;13.19;34.86
49393;BME280;35268;42.642;23.308;2023-02-26T02:33:17;92556.63;;;13.13;34.65
49393;BME280;35268;42.642;23.308;2023-02-26T02:35:46;92576.19;;;13.17;34.55
49393;BME280;35268;42.642;23.308;2023-02-26T02:38:18;92599.06;;;13.14;34.62
49393;BME280;35268;42.642;23.308;2023-02-26T02:41:01;92615.16;;;13.18;34.11
49393;BME280;35268;42.642;23.308;2023-02-26T02:43:30;92604.53;;;13.21;34.54
49393;BME280;35268;42.642;23.308;2023-02-26T02:46:10;92594.59;;;13.22;34.80
49393;BME280;35268;42.642;23.308;2023-02-26T02:48:43;92588.31;;;13.11;34.95
49393;BME280;35268;42.642;23.308;2023-02-26T02:51:32;92611.13;;;13.04;34.65
49393;BME280;35268;42.642;23.308;2023-02-26T02:54:05;92619.97;;;13.09;34.66
49393;BME280;35268;42.642;23.308;2023-02-26T02:56:43;92609.59;;;13.03;34.86
49393;BME280;35268;42.642;23.308;2023-02-26T03:01:43;92633.69;;;13.03;34.87
49393;BME280;35268;42.642;23.308;2023-02-26T03:04:12;92627.91;;;13.01;34.43
49393;BME280;35268;42.642;23.308;2023-02-26T03:06:39;92540.00;;;13.00;34.64
49393;BME280;35268;42.642;23.308;2023-02-26T03:09:07;92601.16;;;13.01;34.35
49393;BME280;35268;42.642;23.308;2023-02-26T03:11:34;92602.75;;;13.06;34.46
49393;BME280;35268;42.642;23.308;2023-02-26T03:14:00;92596.59;;;13.02;34.25
49393;BME280;35268;42.642;23.308;2023-02-26T03:24:06;92594.44;;;13.11;33.98
49393;BME280;35268;42.642;23.308;2023-02-26T03:26:42;92612.34;;;13.07;33.89
49393;BME280;35268;42.642;23.308;2023-02-26T03:29:24;92617.97;;;13.02;34.19
49393;BME280;35268;42.642;23.308;2023-02-26T03:31:53;92586.91;;;12.94;34.06
49393;BME280;35268;42.642;23.308;2023-02-26T03:37:04;92610.72;;;13.02;33.99
49393;BME280;35268;42.642;23.308;2023-02-26T03:39:40;92611.59;;;13.10;34.10
49393;BME280;35268;42.642;23.308;2023-02-26T03:42:27;92620.41;;;13.11;33.89
49393;BME280;35268;42.642;23.308;2023-02-26T03:45:00;92597.88;;;13.12;33.90
49393;BME280;35268;42.642;23.308;2023-02-26T03:47:28;92592.41;;;13.04;34.03
49393;BME280;35268;42.642;23.308;2023-02-26T03:50:02;92596.75;;;13.13;34.54
49393;BME280;35268;42.642;23.308;2023-02-26T03:52:30;92606.63;;;13.09;34.17
49393;BME280;35268;42.642;23.308;2023-02-26T03:55:06;92624.91;;;13.07;34.02
49393;BME280;35268;42.642;23.308;2023-02-26T03:57:34;92594.03;;;13.09;33.90
49393;BME280;35268;42.642;23.308;2023-02-26T03:59:59;92611.53;;;13.07;33.97
49393;BME280;35268;42.642;23.308;2023-02-26T04:02:30;92591.34;;;13.09;33.77
49393;BME280;35268;42.642;23.308;2023-02-26T04:05:31;92602.13;;;13.13;33.99
49393;BME280;35268;42.642;23.308;2023-02-26T04:07:59;92592.13;;;13.10;34.49
49393;BME280;35268;42.642;23.308;2023-02-26T04:10:33;92592.81;;;13.07;34.58
49393;BME280;35268;42.642;23.308;2023-02-26T04:13:01;92572.44;;;12.98;34.37
49393;BME280;35268;42.642;23.308;2023-02-26T04:15:27;92565.25;;;13.02;34.31
49393;BME280;35268;42.642;23.308;2023-02-26T04:17:52;92584.38;;;13.04;33.96
49393;BME280;35268;42.642;23.308;2023-02-26T04:20:18;92570.31;;;13.08;33.91
49393;BME280;35268;42.642;23.308;2023-02-26T04:22:43;92567.50;;;13.00;33.63
49393;BME280;35268;42.642;23.308;2023-02-26T04:25:09;92554.53;;;12.99;34.17
49393;BME280;35268;42.642;23.308;2023-02-26T04:27:35;92563.31;;;12.99;34.06
49393;BME280;35268;42.642;23.308;2023-02-26T04:30:00;92545.28;;;12.96;34.31
49393;BME280;35268;42.642;23.308;2023-02-26T04:32:25;92554.88;;;12.97;34.18
49393;BME280;35268;42.642;23.308;2023-02-26T04:34:51;92558.66;;;12.96;33.85
49393;BME280;35268;42.642;23.308;2023-02-26T04:37:16;92541.50;;;12.97;33.58
49393;BME280;35268;42.642;23.308;2023-02-26T04:39:42;92523.91;;;12.96;33.32
49393;BME280;35268;42.642;23.308;2023-02-26T04:42:07;92531.63;;;13.01;33.02
49393;BME280;35268;42.642;23.308;2023-02-26T04:44:33;92560.72;;;13.07;32.90
49393;BME280;35268;42.642;23.308;2023-02-26T04:46:58;92555.34;;;13.03;32.87
49393;BME280;35268;42.642;23.308;2023-02-26T04:49:24;92548.91;;;13.08;33.03
49393;BME280;35268;42.642;23.308;2023-02-26T04:51:49;92540.94;;;13.11;32.67
49393;BME280;35268;42.642;23.308;2023-02-26T04:54:15;92551.28;;;13.13;32.51
49393;BME280;35268;42.642;23.308;2023-02-26T04:56:41;92567.69;;;13.11;32.63
49393;BME280;35268;42.642;23.308;2023-02-26T04:59:06;92521.44;;;13.11;32.81
49393;BME280;35268;42.642;23.308;2023-02-26T05:01:32;92548.16;;;13.11;32.38
49393;BME280;35268;42.642;23.308;2023-02-26T05:03:57;92479.41;;;13.11;31.84
49393;BME280;35268;42.642;23.308;2023-02-26T05:06:23;92520.00;;;13.17;32.24
49393;BME280;35268;42.642;23.308;2023-02-26T05:08:49;92498.19;;;13.15;32.13
49393;BME280;35268;42.642;23.308;2023-02-26T05:11:14;92495.13;;;13.13;31.94
49393;BME280;35268;42.642;23.308;2023-02-26T05:13:39;92490.59;;;13.17;32.28
49393;BME280;35268;42.642;23.308;2023-02-26T05:16:06;92502.03;;;13.17;31.95
49393;BME280;35268;42.642;23.308;2023-02-26T05:18:32;92484.50;;;13.20;32.18
49393;BME280;35268;42.642;23.308;2023-02-26T05:20:58;92504.38;;;13.19;32.39
49393;BME280;35268;42.642;23.308;2023-02-26T05:23:23;92512.41;;;13.19;32.26
49393;BME280;35268;42.642;23.308;2023-02-26T05:25:49;92534.16;;;13.17;32.23
49393;BME280;35268;42.642;23.308;2023-02-26T05:28:15;92490.59;;;13.20;32.35
49393;BME280;35268;42.642;23.308;2023-02-26T05:30:40;92468.50;;;13.23;31.83
49393;BME280;35268;42.642;23.308;2023-02-26T05:33:06;92445.50;;;13.19;32.27
49393;BME280;35268;42.642;23.308;2023-02-26T05:35:31;92484.53;;;13.23;32.30
49393;BME280;35268;42.642;23.308;2023-02-26T05:37:57;92490.66;;;13.24;32.38
49393;BME280;35268;42.642;23.308;2023-02-26T05:40:23;92470.03;;;13.24;32.23
49393;BME280;35268;42.642;23.308;2023-02-26T05:42:48;92483.44;;;13.28;32.53
49393;BME280;35268;42.642;23.308;2023-02-26T05:45:14;92504.59;;;13.33;32.27
49393;BME280;35268;42.642;23.308;2023-02-26T05:47:39;92465.56;;;13.32;31.96
49393;BME280;35268;42.642;23.308;2023-02-26T05:50:06;92476.31;;;13.36;32.24
49393;BME280;35268;42.642;23.308;2023-02-26T05:52:31;92459.81;;;13.30;31.78
49393;BME280;35268;42.642;23.308;2023-02-26T05:54:57;92450.72;;;13.38;31.96
49393;BME280;35268;42.642;23.308;2023-02-26T05:57:23;92470.63;;;13.41;31.95
49393;BME280;35268;42.642;23.308;2023-02-26T05:59:49;92486.28;;;13.39;31.99
49393;BME280;35268;42.642;23.308;2023-02-26T06:02:15;92484.81;;;13.41;31.98
49393;BME280;35268;42.642;23.308;2023-02-26T06:04:40;92466.44;;;13.40;31.48
49393;BME280;35268;42.642;23.308;2023-02-26T06:07:06;92489.81;;;13.47;31.65
49393;BME280;35268;42.642;23.308;2023-02-26T06:09:31;92495.94;;;13.47;31.48
49393;BME280;35268;42.642;23.308;2023-02-26T06:11:57;92497.53;;;13.52;31.54
49393;BME280;35268;42.642;23.308;2023-02-26T06:14:22;92462.00;;;13.55;31.36
49393;BME280;35268;42.642;23.308;2023-02-26T06:16:48;92468.94;;;13.59;31.37
49393;BME280;35268;42.642;23.308;2023-02-26T06:19:13;92519.56;;;13.72;30.67
49393;BME280;35268;42.642;23.308;2023-02-26T06:21:41;92468.72;;;13.75;30.63
49393;BME280;35268;42.642;23.308;2023-02-26T06:24:09;92457.69;;;13.80;30.66
49393;BME280;35268;42.642;23.308;2023-02-26T06:26:34;92512.84;;;13.85;30.48
49393;BME280;35268;42.642;23.308;2023-02-26T06:29:00;92504.75;;;13.81;30.48
49393;BME280;35268;42.642;23.308;2023-02-26T06:31:26;92504.50;;;13.90;30.52
49393;BME280;35268;42.642;23.308;2023-02-26T06:33:51;92528.19;;;13.92;30.20
49393;BME280;35268;42.642;23.308;2023-02-26T06:36:17;92418.44;;;13.95;30.45
49393;BME280;35268;42.642;23.308;2023-02-26T06:38:43;92502.28;;;13.99;30.10
49393;BME280;35268;42.642;23.308;2023-02-26T06:41:10;92499.94;;;13.98;30.16
49393;BME280;35268;42.642;23.308;2023-02-26T06:43:38;92479.31;;;13.98;29.87
49393;BME280;35268;42.642;23.308;2023-02-26T06:46:03;92499.28;;;14.08;29.98
49393;BME280;35268;42.642;23.308;2023-02-26T06:48:29;92493.56;;;14.10;29.71
49393;BME280;35268;42.642;23.308;2023-02-26T06:50:54;92514.97;;;14.06;29.39
49393;BME280;35268;42.642;23.308;2023-02-26T06:53:20;92453.38;;;14.10;29.25
49393;BME280;35268;42.642;23.308;2023-02-26T06:55:50;92440.03;;;14.13;29.63
49393;BME280;35268;42.642;23.308;2023-02-26T06:58:17;92451.16;;;14.15;29.31
49393;BME280;35268;42.642;23.308;2023-02-26T07:00:43;92461.50;;;14.20;29.36
49393;BME280;35268;42.642;23.308;2023-02-26T07:03:14;92478.38;;;14.21;29.36
49393;BME280;35268;42.642;23.308;2023-02-26T07:05:40;92494.84;;;14.23;29.49
49393;BME280;35268;42.642;23.308;2023-02-26T07:08:06;92446.66;;;14.30;29.10
49393;BME280;35268;42.642;23.308;2023-02-26T07:10:33;92466.97;;;14.31;29.37
49393;BME280;35268;42.642;23.308;2023-02-26T07:12:59;92469.63;;;14.28;29.58
49393;BME280;35268;42.642;23.308;2023-02-26T07:15:25;92462.72;;;14.27;29.65
49393;BME280;35268;42.642;23.308;2023-02-26T07:17:51;92416.44;;;14.30;29.29
49393;BME280;35268;42.642;23.308;2023-02-26T07:20:16;92444.03;;;14.34;29.60
49393;BME280;35268;42.642;23.308;2023-02-26T07:22:42;92441.00;;;14.39;29.06
49393;BME280;35268;42.642;23.308;2023-02-26T07:25:09;92442.22;;;14.45;29.29
49393;BME280;35268;42.642;23.308;2023-02-26T07:27:35;92492.78;;;14.50;29.43
49393;BME280;35268;42.642;23.308;2023-02-26T07:30:01;92441.44;;;14.48;28.75
49393;BME280;35268;42.642;23.308;2023-02-26T07:32:27;92499.28;;;14.45;28.94
49393;BME280;35268;42.642;23.308;2023-02-26T07:34:52;92456.81;;;14.51;28.90
49393;BME280;35268;42.642;23.308;2023-02-26T07:37:18;92497.44;;;14.53;28.64
49393;BME280;35268;42.642;23.308;2023-02-26T07:39:43;92464.16;;;14.58;28.30
49393;BME280;35268;42.642;23.308;2023-02-26T07:42:09;92468.44;;;14.66;28.29
49393;BME280;35268;42.642;23.308;2023-02-26T07:44:34;92456.25;;;14.76;28.19
49393;BME280;35268;42.642;23.308;2023-02-26T07:47:00;92456.69;;;14.85;27.98
49393;BME280;35268;42.642;23.308;2023-02-26T07:49:25;92493.94;;;14.97;28.13
49393;BME280;35268;42.642;23.308;2023-02-26T07:51:51;92457.13;;;14.94;27.80
49393;BME280;35268;42.642;23.308;2023-02-26T07:54:16;92447.19;;;15.02;27.65
49393;BME280;35268;42.642;23.308;2023-02-26T07:56:42;92494.78;;;15.09;27.67
49393;BME280;35268;42.642;23.308;2023-02-26T07:59:08;92451.06;;;15.04;27.39
49393;BME280;35268;42.642;23.308;2023-02-26T08:01:34;92483.31;;;15.15;27.38
49393;BME280;35268;42.642;23.308;2023-02-26T08:04:00;92472.94;;;15.10;27.28
49393;BME280;35268;42.642;23.308;2023-02-26T08:06:26;92451.13;;;15.19;26.67
49393;BME280;35268;42.642;23.308;2023-02-26T08:08:51;92507.50;;;15.19;26.86
49393;BME280;35268;42.642;23.308;2023-02-26T08:11:17;92497.91;;;15.21;27.31
49393;BME280;35268;42.642;23.308;2023-02-26T08:13:42;92472.59;;;15.19;27.25
49393;BME280;35268;42.642;23.308;2023-02-26T08:16:08;92458.78;;;15.17;27.20
49393;BME280;35268;42.642;23.308;2023-02-26T08:18:33;92477.16;;;15.11;27.57
49393;BME280;35268;42.642;23.308;2023-02-26T08:20:59;92507.53;;;15.22;27.25
49393;BME280;35268;42.642;23.308;2023-02-26T08:23:24;92510.59;;;15.28;26.95
49393;BME280;35268;42.642;23.308;2023-02-26T08:26:01;92509.06;;;15.27;26.59
49393;BME280;35268;42.642;23.308;2023-02-26T08:28:27;92488.41;;;15.38;27.24
49393;BME280;35268;42.642;23.308;2023-02-26T08:30:52;92482.69;;;15.43;26.62
49393;BME280;35268;42.642;23.308;2023-02-26T08:33:18;92525.66;;;15.51;26.81
49393;BME280;35268;42.642;23.308;2023-02-26T08:35:44;92491.91;;;15.46;28.37
49393;BME280;35268;42.642;23.308;2023-02-26T08:38:09;92533.34;;;15.52;26.85
49393;BME280;35268;42.642;23.308;2023-02-26T08:40:34;92567.53;;;15.55;26.64
49393;BME280;35268;42.642;23.308;2023-02-26T08:43:00;92491.19;;;15.56;26.98
49393;BME280;35268;42.642;23.308;2023-02-26T08:45:28;92511.94;;;15.67;26.38
49393;BME280;35268;42.642;23.308;2023-02-26T08:47:53;92570.31;;;15.73;26.37
49393;BME280;35268;42.642;23.308;2023-02-26T08:50:20;92492.84;;;15.75;28.25
49393;BME280;35268;42.642;23.308;2023-02-26T08:52:45;92523.16;;;15.79;27.95
49393;BME280;35268;42.642;23.308;2023-02-26T08:55:11;92521.97;;;15.73;25.64
49393;BME280;35268;42.642;23.308;2023-02-26T08:57:36;92531.97;;;15.76;25.92
49393;BME280;35268;42.642;23.308;2023-02-26T09:00:05;92518.19;;;15.85;25.91
49393;BME280;35268;42.642;23.308;2023-02-26T09:02:35;92525.13;;;15.90;26.07
49393;BME280;35268;42.642;23.308;2023-02-26T09:05:00;92536.25;;;15.88;25.45
49393;BME280;35268;42.642;23.308;2023-02-26T09:07:26;92536.63;;;15.90;25.49
49393;BME280;35268;42.642;23.308;2023-02-26T09:09:51;92535.50;;;15.95;25.51
49393;BME280;35268;42.642;23.308;2023-02-26T09:12:16;92563.56;;;16.04;25.19
49393;BME280;35268;42.642;23.308;2023-02-26T09:14:42;92568.16;;;16.04;24.80
49393;BME280;35268;42.642;23.308;2023-02-26T09:17:07;92576.63;;;16.13;25.06
49393;BME280;35268;42.642;23.308;2023-02-26T09:19:33;92549.78;;;16.24;24.70
49393;BME280;35268;42.642;23.308;2023-02-26T09:21:58;92540.22;;;16.34;24.33
49393;BME280;35268;42.642;23.308;2023-02-26T09:24:24;92568.66;;;16.35;24.41
49393;BME280;35268;42.642;23.308;2023-02-26T09:26:49;92547.13;;;16.42;24.62
49393;BME280;35268;42.642;23.308;2023-02-26T09:29:14;92536.78;;;16.48;24.21
49393;BME280;35268;42.642;23.308;2023-02-26T09:31:40;92553.31;;;16.53;23.67
49393;BME280;35268;42.642;23.308;2023-02-26T09:34:05;92563.69;;;16.58;23.78
49393;BME280;35268;42.642;23.308;2023-02-26T09:36:31;92549.88;;;16.63;23.72
49393;BME280;35268;42.642;23.308;2023-02-26T09:38:56;92571.03;;;16.83;24.30
49393;BME280;35268;42.642;23.308;2023-02-26T09:41:38;92569.09;;;16.76;23.66
49393;BME280;35268;42.642;23.308;2023-02-26T09:44:14;92528.00;;;16.83;23.01
49393;BME280;35268;42.642;23.308;2023-02-26T09:52:21;92571.44;;;16.81;23.95
49393;BME280;35268;42.642;23.308;2023-02-26T09:54:52;92573.34;;;16.81;23.66
49393;BME280;35268;42.642;23.308;2023-02-26T09:57:28;92573.75;;;16.97;23.72
49393;BME280;35268;42.642;23.308;2023-02-26T09:59:54;92576.06;;;17.02;24.12
49393;BME280;35268;42.642;23.308;2023-02-26T10:05:40;92535.69;;;16.81;24.11
49393;BME280;35268;42.642;23.308;2023-02-26T10:08:16;92563.34;;;16.85;24.43
49393;BME280;35268;42.642;23.308;2023-02-26T10:16:03;92536.81;;;16.73;24.64
49393;BME280;35268;42.642;23.308;2023-02-26T10:18:33;92531.00;;;16.42;24.99
49393;BME280;35268;42.642;23.308;2023-02-26T10:21:15;92534.47;;;16.42;24.87
49393;BME280;35268;42.642;23.308;2023-02-26T10:23:43;92532.91;;;16.38;24.66
49393;BME280;35268;42.642;23.308;2023-02-26T10:26:35;92569.81;;;16.44;24.76
49393;BME280;35268;42.642;23.308;2023-02-26T10:32:18;92537.16;;;16.39;24.89
49393;BME280;35268;42.642;23.308;2023-02-26T10:34:57;92547.13;;;16.42;25.07
49393;BME280;35268;42.642;23.308;2023-02-26T10:40:34;92536.34;;;16.24;25.76
49393;BME280;35268;42.642;23.308;2023-02-26T10:43:31;92490.25;;;16.18;26.05
49393;BME280;35268;42.642;23.308;2023-02-26T10:46:11;92473.38;;;16.14;25.91
49393;BME280;35268;42.642;23.308;2023-02-26T10:49:18;92497.56;;;16.25;26.01
49393;BME280;35268;42.642;23.308;2023-02-26T10:51:50;92491.78;;;16.16;26.16
49393;BME280;35268;42.642;23.308;2023-02-26T10:54:39;92512.53;;;16.15;25.66
49393;BME280;35268;42.642;23.308;2023-02-26T10:57:17;92467.59;;;16.16;26.06
49393;BME280;35268;42.642;23.308;2023-02-26T10:59:45;92507.88;;;16.01;26.35
49393;BME280;35268;42.642;23.308;2023-02-26T11:02:31;92499.44;;;16.03;26.95
49393;BME280;35268;42.642;23.308;2023-02-26T11:04:58;92512.13;;;16.13;27.06
49393;BME280;35268;42.642;23.308;2023-02-26T11:07:29;92492.91;;;16.00;27.03
49393;BME280;35268;42.642;23.308;2023-02-26T11:09:55;92476.78;;;16.00;26.93
49393;BME280;35268;42.642;23.308;2023-02-26T11:12:21;92483.69;;;16.05;26.68
49393;BME280;35268;42.642;23.308;2023-02-26T11:14:48;92502.16;;;16.10;26.85
49393;BME280;35268;42.642;23.308;2023-02-26T11:17:20;92471.44;;;16.04;26.39
49393;BME280;35268;42.642;23.308;2023-02-26T11:20:11;92483.72;;;16.12;26.61
49393;BME280;35268;42.642;23.308;2023-02-26T11:22:45;92474.84;;;15.97;26.69
49393;BME280;35268;42.642;23.308;2023-02-26T11:25:17;92462.22;;;16.09;27.47
49393;BME280;35268;42.642;23.308;2023-02-26T11:27:43;92468.72;;;16.08;27.20
49393;BME280;35268;42.642;23.308;2023-02-26T11:30:19;92461.38;;;15.83;27.69
49393;BME280;35268;42.642;23.308;2023-02-26T11:32:52;92485.88;;;15.71;27.99
49393;BME280;35268;42.642;23.308;2023-02-26T11:35:19;92492.00;;;15.68;28.09
49393;BME280;35268;42.642;23.308;2023-02-26T11:37:51;92504.66;;;15.67;28.18
49393;BME280;35268;42.642;23.308;2023-02-26T11:40:22;92494.38;;;15.76;28.71
49393;BME280;35268;42.642;23.308;2023-02-26T11:42:59;92504.31;;;15.72;28.81
49393;BME280;35268;42.642;23.308;2023-02-26T11:45:27;92485.09;;;15.70;29.03
49393;BME280;35268;42.642;23.308;2023-02-26T11:48:03;92510.91;;;15.86;28.94
49393;BME280;35268;42.642;23.308;2023-02-26T11:50:38;92487.09;;;15.80;28.94
49393;BME280;35268;42.642;23.308;2023-02-26T11:53:19;92514.38;;;15.90;29.14
49393;BME280;35268;42.642;23.308;2023-02-26T11:55:52;92492.47;;;15.80;29.50
49393;BME280;35268;42.642;23.308;2023-02-26T11:58:21;92541.13;;;15.68;31.04
49393;BME280;35268;42.642;23.308;2023-02-26T12:00:47;92545.44;;;15.80;31.13
49393;BME280;35268;42.642;23.308;2023-02-26T12:03:20;92545.00;;;15.74;31.09
49393;BME280;35268;42.642;23.308;2023-02-26T12:05:46;92551.53;;;15.77;32.41
49393;BME280;35268;42.642;23.308;2023-02-26T12:08:32;92544.25;;;15.74;32.95
49393;BME280;35268;42.642;23.308;2023-02-26T12:20:24;92576.28;;;15.41;31.59
49393;BME280;35268;42.642;23.308;2023-02-26T12:23:12;92564.69;;;15.30;32.71
49393;BME280;35268;42.642;23.308;2023-02-26T12:25:58;92549.31;;;15.23;33.86
49393;BME280;35268;42.642;23.308;2023-02-26T12:36:50;92593.66;;;15.62;32.90
49393;BME280;35268;42.642;23.308;2023-02-26T12:50:29;92652.88;;;16.75;32.85
49393;BME280;35268;42.642;23.308;2023-02-26T13:07:00;92631.06;;;17.37;30.76
49393;BME280;35268;42.642;23.308;2023-02-26T13:18:11;92662.94;;;16.81;32.76
49393;BME280;35268;42.642;23.308;2023-02-26T13:20:51;92669.78;;;16.79;33.21
49393;BME280;35268;42.642;23.308;2023-02-26T13:23:22;92662.84;;;16.71;33.33
49393;BME280;35268;42.642;23.308;2023-02-26T13:25:55;92662.88;;;16.74;32.81
49393;BME280;35268;42.642;23.308;2023-02-26T13:30:49;92641.00;;;16.79;32.62
49393;BME280;35268;42.642;23.308;2023-02-26T13:33:20;92656.03;;;17.05;31.76
49393;BME280;35268;42.642;23.308;2023-02-26T13:35:49;92596.03;;;17.34;31.28
49393;BME280;35268;42.642;23.308;2023-02-26T13:52:25;92657.97;;;17.09;30.75
49393;BME280;35268;42.642;23.308;2023-02-26T13:54:52;92615.19;;;16.53;30.33
49393;BME280;35268;42.642;23.308;2023-02-26T13:57:42;92573.63;;;16.40;31.81
49393;BME280;35268;42.642;23.308;2023-02-26T14:00:33;92597.44;;;16.27;31.54
49393;BME280;35268;42.642;23.308;2023-02-26T14:14:15;92595.59;;;16.63;29.85
49393;BME280;35268;42.642;23.308;2023-02-26T14:16:43;92605.97;;;16.61;29.48
49393;BME280;35268;42.642;23.308;2023-02-26T14:19:21;92624.41;;;16.59;29.01
49393;BME280;35268;42.642;23.308;2023-02-26T14:21:55;92588.25;;;16.39;28.96
49393;BME280;35268;42.642;23.308;2023-02-26T14:24:53;92613.22;;;16.43;29.34
49393;BME280;35268;42.642;23.308;2023-02-26T14:32:34;92619.69;;;16.20;29.75
49393;BME280;35268;42.642;23.308;2023-02-26T14:35:28;92612.75;;;16.19;29.44
49393;BME280;35268;42.642;23.308;2023-02-26T14:38:05;92624.66;;;16.18;30.00
49393;BME280;35268;42.642;23.308;2023-02-26T14:40:45;92626.19;;;16.12;30.01
49393;BME280;35268;42.642;23.308;2023-02-26T14:43:35;92615.41;;;16.16;29.91
49393;BME280;35268;42.642;23.308;2023-02-26T14:46:02;92638.50;;;16.20;29.98
49393;BME280;35268;42.642;23.308;2023-02-26T14:48:28;92642.72;;;16.21;30.28
49393;BME280;35268;42.642;23.308;2023-02-26T14:56:29;92641.94;;;16.21;30.19
49393;BME280;35268;42.642;23.308;2023-02-26T15:02:04;92665.00;;;16.18;29.99
49393;BME280;35268;42.642;23.308;2023-02-26T15:04:44;92655.00;;;16.19;30.63
49393;BME280;35268;42.642;23.308;2023-02-26T15:10:36;92676.53;;;16.22;30.67
49393;BME280;35268;42.642;23.308;2023-02-26T15:26:05;92687.91;;;16.01;32.49
49393;BME280;35268;42.642;23.308;2023-02-26T15:28:37;92682.00;;;15.74;33.68
49393;BME280;35268;42.642;23.308;2023-02-26T15:31:10;92704.56;;;15.66;34.85
49393;BME280;35268;42.642;23.308;2023-02-26T15:33:37;92706.38;;;15.51;34.71
49393;BME280;35268;42.642;23.308;2023-02-26T15:36:12;92688.88;;;15.23;35.09
49393;BME280;35268;42.642;23.308;2023-02-26T15:38:44;92695.75;;;15.21;35.49
49393;BME280;35268;42.642;23.308;2023-02-26T15:41:10;92708.78;;;15.19;34.79
49393;BME280;35268;42.642;23.308;2023-02-26T15:44:03;92705.69;;;15.17;34.69
49393;BME280;35268;42.642;23.308;2023-02-26T15:46:33;92724.09;;;15.15;34.92
49393;BME280;35268;42.642;23.308;2023-02-26T15:49:04;92714.88;;;15.16;34.09
49393;BME280;35268;42.642;23.308;2023-02-26T15:51:32;92725.66;;;15.19;33.34
49393;BME280;35268;42.642;23.308;2023-02-26T15:53:58;92723.41;;;15.25;33.40
49393;BME280;35268;42.642;23.308;2023-02-26T15:56:31;92739.56;;;15.29;33.55
49393;BME280;35268;42.642;23.308;2023-02-26T15:59:11;92751.78;;;15.26;33.56
49393;BME280;35268;42.642;23.308;2023-02-26T16:01:39;92734.88;;;15.22;33.67
49393;BME280;35268;42.642;23.308;2023-02-26T16:04:09;92750.97;;;15.22;33.39